Time;durP1;ratioP1;P1;durP2;ratioP2;P2;SDS_P1;SDS_P2;PMS_P1;PMS_P2;Temp;Humidity;BMP_temperature;BMP_pressure;BME280_temperature;BME280_humidity;BME280_pressure;Samples;Min_cycle;Max_cycle;Signal;HPM_P1;HPM_P2
2021/10/31 00:02:25;;;;;;;15.73;14.00;;;12.30;99.90;;;;;;5025469;28;20205;-72
2021/10/31 00:04:52;;;;;;;16.40;14.73;;;12.40;99.90;;;;;;5025456;28;20236;-72
2021/10/31 00:07:20;;;;;;;17.80;14.03;;;12.40;99.90;;;;;;5025410;28;20236;-72
2021/10/31 00:09:47;;;;;;;15.33;13.83;;;12.40;99.90;;;;;;5025070;28;20232;-72
2021/10/31 00:12:14;;;;;;;16.10;13.97;;;12.40;99.90;;;;;;5025145;28;20728;-72
2021/10/31 00:14:40;;;;;;;16.27;14.57;;;12.40;99.90;;;;;;5025219;28;20213;-72
2021/10/31 00:17:07;;;;;;;16.47;14.77;;;12.40;99.90;;;;;;5025355;28;20208;-72
2021/10/31 00:19:34;;;;;;;16.23;14.07;;;12.40;99.90;;;;;;5025185;28;20258;-72
2021/10/31 00:22:01;;;;;;;15.77;14.17;;;12.40;99.90;;;;;;5025489;28;20642;-72
2021/10/31 00:24:29;;;;;;;15.33;13.80;;;12.40;99.90;;;;;;5025483;28;20655;-72
2021/10/31 00:26:56;;;;;;;14.70;13.30;;;12.40;99.90;;;;;;5025282;28;20217;-72
2021/10/31 00:29:22;;;;;;;14.90;13.40;;;12.40;99.90;;;;;;5025112;28;20281;-72
2021/10/31 00:31:49;;;;;;;15.27;13.77;;;12.40;99.90;;;;;;5024911;28;20210;-72
2021/10/31 00:34:16;;;;;;;15.70;14.00;;;12.40;99.90;;;;;;5025138;28;20243;-72
2021/10/31 00:36:42;;;;;;;16.80;13.67;;;12.40;99.90;;;;;;5025432;28;20222;-72
2021/10/31 00:39:09;;;;;;;15.40;13.80;;;12.40;99.90;;;;;;5028612;28;20209;-72
2021/10/31 00:41:37;;;;;;;15.23;13.63;;;12.50;99.90;;;;;;5028096;28;20659;-72
2021/10/31 00:44:03;;;;;;;14.97;13.47;;;12.40;99.90;;;;;;5028444;28;20588;-72
2021/10/31 00:46:30;;;;;;;17.80;14.23;;;12.40;99.90;;;;;;5028313;28;20821;-72
2021/10/31 00:48:57;;;;;;;15.07;13.57;;;12.40;99.90;;;;;;5028413;28;20228;-72
2021/10/31 00:51:26;;;;;;;15.90;14.03;;;12.40;99.90;;;;;;5028340;28;20250;-72
2021/10/31 00:53:54;;;;;;;14.47;13.07;;;12.50;99.90;;;;;;5028193;28;20205;-72
2021/10/31 00:56:21;;;;;;;15.47;13.97;;;12.40;99.90;;;;;;5028165;28;20639;-72
2021/10/31 00:58:49;;;;;;;15.43;13.83;;;12.50;99.90;;;;;;5027665;28;20266;-72
2021/10/31 01:01:16;;;;;;;15.30;13.57;;;12.40;99.90;;;;;;5028301;28;20197;-72
2021/10/31 01:03:43;;;;;;;15.47;14.07;;;12.40;99.90;;;;;;5028081;28;20209;-72
2021/10/31 01:06:38;;;;;;;15.90;14.40;;;12.40;99.90;;;;;;5027878;28;20228;-72
2021/10/31 01:09:13;;;;;;;14.80;13.30;;;12.40;99.90;;;;;;5025282;28;20677;-72
2021/10/31 01:11:55;;;;;;;15.10;13.60;;;12.40;99.90;;;;;;5027827;28;20200;-72
2021/10/31 01:14:46;;;;;;;15.00;13.40;;;12.40;99.90;;;;;;5027965;28;20253;-72
2021/10/31 01:17:30;;;;;;;16.80;13.00;;;12.40;99.90;;;;;;5028089;28;20237;-72
2021/10/31 01:20:12;;;;;;;15.10;13.50;;;12.40;99.90;;;;;;5028055;28;20285;-72
2021/10/31 01:22:56;;;;;;;14.90;13.40;;;12.40;99.90;;;;;;5027951;28;20225;-72
2021/10/31 01:25:37;;;;;;;14.57;13.17;;;12.40;99.90;;;;;;5027929;28;20197;-72
2021/10/31 01:28:12;;;;;;;13.80;12.53;;;12.40;99.90;;;;;;5027732;28;20204;-72
2021/10/31 01:30:48;;;;;;;14.57;13.07;;;12.40;99.90;;;;;;5027032;28;20227;-72
2021/10/31 01:33:26;;;;;;;14.63;13.23;;;12.40;99.90;;;;;;5035996;28;20193;-72
2021/10/31 01:36:04;;;;;;;15.43;13.57;;;12.40;99.90;;;;;;5038305;28;20204;-72
2021/10/31 01:38:41;;;;;;;14.07;12.77;;;12.40;99.90;;;;;;5036663;28;20606;-72
2021/10/31 01:41:12;;;;;;;15.10;13.70;;;12.40;99.90;;;;;;5035882;28;20197;-72
2021/10/31 01:43:47;;;;;;;13.47;12.23;;;12.40;99.90;;;;;;5036592;28;20220;-72
2021/10/31 01:46:27;;;;;;;13.93;12.63;;;12.40;99.90;;;;;;5037136;28;20221;-72
2021/10/31 01:49:01;;;;;;;14.40;12.23;;;12.40;99.90;;;;;;5040362;27;20673;-73
2021/10/31 01:51:34;;;;;;;14.97;12.63;;;12.30;99.90;;;;;;5035576;28;20232;-73
2021/10/31 01:54:04;;;;;;;14.27;12.87;;;12.30;99.90;;;;;;5036300;28;20252;-76
2021/10/31 01:56:34;;;;;;;14.57;12.63;;;12.30;99.90;;;;;;5033059;28;20205;-72
2021/10/31 01:59:06;;;;;;;14.20;12.80;;;12.30;99.90;;;;;;5030328;28;20247;-71
2021/10/31 02:01:37;;;;;;;15.00;12.37;;;12.30;99.90;;;;;;5047454;28;20200;-73
2021/10/31 02:04:07;;;;;;;13.93;12.43;;;12.30;99.90;;;;;;5046980;28;20192;-74
2021/10/31 02:06:38;;;;;;;13.63;12.23;;;12.30;99.90;;;;;;5037617;28;20204;-73
2021/10/31 02:09:05;;;;;;;12.80;11.50;;;12.30;99.90;;;;;;5026574;28;20709;-71
2021/10/31 02:11:35;;;;;;;14.10;12.70;;;12.30;99.90;;;;;;5026794;28;20209;-72
2021/10/31 02:14:03;;;;;;;14.60;12.20;;;12.30;99.90;;;;;;5026914;28;20213;-72
2021/10/31 02:16:30;;;;;;;13.33;11.93;;;12.20;99.90;;;;;;5026486;28;20213;-72
2021/10/31 02:19:03;;;;;;;13.73;12.30;;;12.30;99.90;;;;;;5026585;28;20695;-72
2021/10/31 02:21:32;;;;;;;14.23;12.83;;;12.30;99.90;;;;;;5026628;28;20312;-72
2021/10/31 02:24:01;;;;;;;13.50;12.30;;;12.20;99.90;;;;;;5026135;28;20579;-72
2021/10/31 02:26:27;;;;;;;13.87;12.47;;;12.20;99.90;;;;;;5026700;28;20286;-72
2021/10/31 02:28:59;;;;;;;14.07;12.43;;;12.10;99.90;;;;;;5026746;28;20232;-72
2021/10/31 02:31:29;;;;;;;13.47;12.17;;;12.20;99.90;;;;;;5026640;28;20201;-72
2021/10/31 02:33:57;;;;;;;12.97;11.67;;;12.20;99.90;;;;;;5026756;28;20211;-72
2021/10/31 02:36:24;;;;;;;13.50;12.30;;;12.10;99.90;;;;;;5026533;28;20671;-72
2021/10/31 02:38:51;;;;;;;13.43;11.90;;;12.20;99.90;;;;;;5026403;28;20659;-72
2021/10/31 02:41:19;;;;;;;13.30;12.13;;;12.20;99.90;;;;;;5026617;28;20236;-72
2021/10/31 02:43:46;;;;;;;13.53;12.20;;;12.20;99.90;;;;;;5026703;28;20232;-73
2021/10/31 02:46:14;;;;;;;13.57;12.17;;;12.20;99.90;;;;;;5026612;28;20229;-74
2021/10/31 02:48:41;;;;;;;12.73;11.47;;;12.20;99.90;;;;;;5026642;28;20260;-74
2021/10/31 02:51:15;;;;;;;14.03;11.67;;;12.20;99.90;;;;;;5026664;28;20752;-74
2021/10/31 02:53:48;;;;;;;13.70;12.30;;;12.20;99.90;;;;;;5026406;28;20205;-74
2021/10/31 02:56:25;;;;;;;12.90;11.70;;;12.10;99.90;;;;;;5026612;28;20197;-74
2021/10/31 02:58:57;;;;;;;12.90;11.60;;;12.10;99.90;;;;;;5026404;28;20434;-74
2021/10/31 03:01:25;;;;;;;12.50;11.30;;;12.20;99.90;;;;;;5025366;28;20209;-74
2021/10/31 03:03:54;;;;;;;13.10;11.73;;;12.20;99.90;;;;;;5026440;28;20248;-74
2021/10/31 03:06:21;;;;;;;12.80;11.50;;;12.20;99.90;;;;;;5026362;28;20232;-74
2021/10/31 03:08:48;;;;;;;12.83;11.37;;;12.20;99.90;;;;;;5026089;28;20263;-72
2021/10/31 03:11:15;;;;;;;13.17;11.87;;;12.10;99.90;;;;;;5026368;28;20212;-72
2021/10/31 03:13:43;;;;;;;13.97;12.00;;;12.10;99.90;;;;;;5025745;28;20216;-72
2021/10/31 03:16:10;;;;;;;13.07;11.70;;;12.10;99.90;;;;;;5026182;28;20240;-72
2021/10/31 03:18:37;;;;;;;12.73;11.40;;;12.10;99.90;;;;;;5026073;28;20201;-72
2021/10/31 03:21:04;;;;;;;13.20;11.90;;;12.10;99.90;;;;;;5025769;28;20259;-72
2021/10/31 03:23:31;;;;;;;13.00;11.80;;;12.10;99.90;;;;;;5025951;28;20273;-71
2021/10/31 03:25:57;;;;;;;13.33;12.03;;;12.10;99.90;;;;;;5025955;28;20209;-71
2021/10/31 03:28:24;;;;;;;13.57;12.27;;;12.10;99.90;;;;;;5026028;28;20201;-71
2021/10/31 03:30:53;;;;;;;12.87;11.77;;;12.10;99.90;;;;;;5025897;28;20286;-72
2021/10/31 03:33:19;;;;;;;12.90;11.23;;;12.00;99.90;;;;;;5026015;28;20209;-72
2021/10/31 03:35:46;;;;;;;12.20;11.10;;;12.00;99.90;;;;;;5025637;28;20231;-72
2021/10/31 03:38:12;;;;;;;12.10;10.90;;;12.00;99.90;;;;;;5025520;28;20724;-72
2021/10/31 03:40:39;;;;;;;12.73;11.43;;;12.00;99.90;;;;;;5025753;28;20205;-72
2021/10/31 03:43:07;;;;;;;12.03;10.73;;;12.00;99.90;;;;;;5025821;28;20221;-72
2021/10/31 03:45:34;;;;;;;12.97;11.57;;;12.00;99.90;;;;;;5025621;28;20296;-72
2021/10/31 03:48:03;;;;;;;12.83;11.53;;;12.00;99.90;;;;;;5025733;28;20252;-72
2021/10/31 03:50:31;;;;;;;14.97;11.13;;;12.00;99.90;;;;;;5025436;28;20339;-74
2021/10/31 03:52:58;;;;;;;12.80;11.50;;;12.00;99.90;;;;;;5025367;28;20201;-73
2021/10/31 03:55:25;;;;;;;12.50;11.20;;;12.00;99.90;;;;;;5025156;28;20212;-73
2021/10/31 03:57:51;;;;;;;11.43;10.33;;;12.00;99.90;;;;;;5025659;28;20289;-73
2021/10/31 04:00:18;;;;;;;11.97;10.77;;;12.00;99.90;;;;;;5024896;28;20248;-73
2021/10/31 04:02:45;;;;;;;11.80;10.60;;;12.00;99.90;;;;;;5025275;28;20209;-73
2021/10/31 04:05:14;;;;;;;11.47;10.37;;;12.00;99.90;;;;;;5025346;28;20228;-73
2021/10/31 04:07:42;;;;;;;12.40;10.70;;;12.00;99.90;;;;;;5025108;28;20701;-73
2021/10/31 04:10:10;;;;;;;11.47;10.37;;;12.00;99.90;;;;;;5025281;28;20232;-73
2021/10/31 04:12:36;;;;;;;12.17;11.07;;;12.00;99.90;;;;;;5024877;28;20240;-71
2021/10/31 04:15:03;;;;;;;11.60;10.53;;;12.00;99.90;;;;;;5025237;28;20201;-72
2021/10/31 04:17:31;;;;;;;12.37;11.17;;;12.00;99.90;;;;;;5025154;28;20204;-72
2021/10/31 04:19:58;;;;;;;12.30;11.10;;;12.00;99.90;;;;;;5025055;28;20676;-72
2021/10/31 04:22:26;;;;;;;11.03;9.97;;;12.00;99.90;;;;;;5024906;28;20790;-73
2021/10/31 04:24:52;;;;;;;10.60;9.70;;;12.00;99.90;;;;;;5025036;28;20690;-73
2021/10/31 04:27:19;;;;;;;11.23;10.13;;;12.00;99.90;;;;;;5025079;28;20233;-73
2021/10/31 04:29:46;;;;;;;10.63;9.63;;;12.00;99.90;;;;;;5024925;28;20264;-73
2021/10/31 04:32:13;;;;;;;10.27;9.27;;;12.00;99.90;;;;;;5024975;28;20240;-71
2021/10/31 04:34:39;;;;;;;10.43;9.47;;;12.00;99.90;;;;;;5024914;28;20239;-71
2021/10/31 04:37:06;;;;;;;9.67;8.77;;;12.00;99.90;;;;;;5024993;28;20246;-71
2021/10/31 04:39:34;;;;;;;10.27;9.37;;;12.00;99.90;;;;;;5024686;28;20750;-71
2021/10/31 04:42:03;;;;;;;9.13;8.43;;;12.00;99.90;;;;;;5024780;28;20221;-74
2021/10/31 04:44:31;;;;;;;10.00;9.00;;;12.00;99.90;;;;;;5024912;28;20236;-74
2021/10/31 04:46:58;;;;;;;10.10;9.20;;;12.00;99.90;;;;;;5025064;28;20282;-74
2021/10/31 04:49:25;;;;;;;9.93;9.03;;;12.00;99.90;;;;;;5024818;28;20258;-72
2021/10/31 04:51:52;;;;;;;9.57;8.70;;;12.00;99.90;;;;;;5024826;28;20201;-73
2021/10/31 04:54:18;;;;;;;11.40;9.40;;;12.00;99.90;;;;;;5024770;28;20245;-74
2021/10/31 04:56:46;;;;;;;9.07;8.37;;;12.00;99.90;;;;;;5024545;28;20209;-73
2021/10/31 04:59:13;;;;;;;9.43;8.60;;;12.10;99.90;;;;;;5024653;28;20664;-73
2021/10/31 05:01:40;;;;;;;10.33;8.97;;;12.10;99.90;;;;;;5024647;28;20209;-73
2021/10/31 05:04:06;;;;;;;10.07;9.17;;;12.10;99.90;;;;;;5024739;28;20278;-73
2021/10/31 05:06:33;;;;;;;11.13;10.00;;;12.20;99.90;;;;;;5024723;28;20204;-72
2021/10/31 05:09:00;;;;;;;10.00;9.00;;;12.20;99.90;;;;;;5024857;28;20200;-72
2021/10/31 05:11:27;;;;;;;10.10;9.10;;;12.20;99.90;;;;;;5024453;28;20309;-73
2021/10/31 05:13:55;;;;;;;9.80;8.90;;;12.20;99.90;;;;;;5024866;28;20248;-72
2021/10/31 05:16:22;;;;;;;9.73;8.87;;;12.20;99.90;;;;;;5024765;28;20207;-72
2021/10/31 05:18:49;;;;;;;9.70;8.70;;;12.20;99.90;;;;;;5024631;28;20669;-72
2021/10/31 05:21:15;;;;;;;9.83;8.83;;;12.30;99.90;;;;;;5024614;28;20584;-72
2021/10/31 05:23:42;;;;;;;8.90;8.10;;;12.20;99.90;;;;;;5025135;28;20212;-72
2021/10/31 05:26:08;;;;;;;9.17;8.33;;;12.20;99.90;;;;;;5028028;28;20238;-72
2021/10/31 05:28:35;;;;;;;9.27;8.43;;;12.30;99.90;;;;;;5027474;28;20208;-72
2021/10/31 05:31:03;;;;;;;10.20;8.43;;;12.30;99.90;;;;;;5027882;28;20682;-72
2021/10/31 05:33:30;;;;;;;9.83;8.93;;;12.30;99.90;;;;;;5027878;28;20302;-71
2021/10/31 05:35:56;;;;;;;9.37;8.57;;;12.30;99.90;;;;;;5027521;28;20209;-71
2021/10/31 05:38:23;;;;;;;9.60;8.70;;;12.30;99.90;;;;;;5027476;28;20213;-71
2021/10/31 05:40:51;;;;;;;9.37;8.57;;;12.30;99.90;;;;;;5027426;28;20265;-71
2021/10/31 05:43:18;;;;;;;9.97;9.07;;;12.20;99.90;;;;;;5027473;28;20282;-72
2021/10/31 05:45:46;;;;;;;9.33;8.50;;;12.30;99.90;;;;;;5027534;28;20636;-71
2021/10/31 05:48:16;;;;;;;10.10;9.10;;;12.30;99.90;;;;;;5027324;28;20723;-71
2021/10/31 05:50:43;;;;;;;9.43;8.63;;;12.20;99.90;;;;;;5027189;28;20664;-71
2021/10/31 05:53:09;;;;;;;10.53;9.53;;;12.20;99.90;;;;;;5027261;28;20678;-72
2021/10/31 05:55:36;;;;;;;10.67;9.57;;;12.20;99.90;;;;;;5027212;28;20265;-72
2021/10/31 05:58:03;;;;;;;10.20;9.23;;;12.20;99.90;;;;;;5027387;28;20613;-72
2021/10/31 06:00:30;;;;;;;10.43;9.43;;;12.20;99.90;;;;;;5027048;28;20286;-72
2021/10/31 06:02:56;;;;;;;11.17;9.70;;;12.20;99.90;;;;;;5027605;28;20266;-72
2021/10/31 06:05:24;;;;;;;10.47;9.47;;;12.20;99.90;;;;;;5027271;28;20377;-72
2021/10/31 06:07:51;;;;;;;10.10;9.10;;;12.10;99.90;;;;;;5027194;28;20212;-72
2021/10/31 06:10:18;;;;;;;10.80;9.80;;;12.10;99.90;;;;;;5026865;28;20823;-72
2021/10/31 06:12:46;;;;;;;10.07;9.17;;;12.20;99.90;;;;;;5026824;28;20564;-72
2021/10/31 06:15:14;;;;;;;10.50;9.60;;;12.10;99.90;;;;;;5026855;28;20666;-72
2021/10/31 06:17:41;;;;;;;10.47;9.53;;;12.10;99.90;;;;;;5027005;28;20281;-73
2021/10/31 06:20:09;;;;;;;10.20;9.20;;;12.10;99.90;;;;;;5026840;28;20352;-73
2021/10/31 06:22:38;;;;;;;10.57;9.60;;;12.10;99.90;;;;;;5026886;28;20201;-72
2021/10/31 06:25:06;;;;;;;10.63;9.53;;;12.10;99.90;;;;;;5026569;28;20266;-73
2021/10/31 06:27:32;;;;;;;10.50;9.50;;;12.10;99.90;;;;;;5026732;28;20258;-73
2021/10/31 06:30:00;;;;;;;10.70;9.80;;;12.10;99.90;;;;;;5026593;28;20782;-74
2021/10/31 06:32:27;;;;;;;10.13;9.10;;;12.10;99.90;;;;;;5026481;28;20215;-74
2021/10/31 06:34:54;;;;;;;10.90;9.80;;;12.10;99.90;;;;;;5026834;28;20440;-73
2021/10/31 06:37:21;;;;;;;10.57;9.63;;;12.10;99.90;;;;;;5026718;28;20212;-73
2021/10/31 06:39:50;;;;;;;9.90;9.10;;;12.10;99.90;;;;;;5026535;28;20205;-73
2021/10/31 06:42:16;;;;;;;11.37;10.17;;;12.10;99.90;;;;;;5026529;28;20372;-73
2021/10/31 06:44:43;;;;;;;11.07;10.07;;;12.10;99.90;;;;;;5026341;28;20229;-73
2021/10/31 06:47:10;;;;;;;10.57;9.57;;;12.20;99.90;;;;;;5026754;28;21089;-73
2021/10/31 06:49:40;;;;;;;11.30;9.90;;;12.20;99.90;;;;;;5026444;28;20265;-73
2021/10/31 06:52:07;;;;;;;10.63;9.63;;;12.20;99.90;;;;;;5026581;28;20208;-73
2021/10/31 06:54:33;;;;;;;12.13;10.23;;;12.20;99.90;;;;;;5026154;28;20281;-73
2021/10/31 06:57:01;;;;;;;10.73;9.73;;;12.30;99.90;;;;;;5026260;28;20270;-73
2021/10/31 06:59:28;;;;;;;11.30;10.20;;;12.30;99.90;;;;;;5026088;28;20237;-73
2021/10/31 07:01:55;;;;;;;10.83;9.83;;;12.30;99.90;;;;;;5026379;28;20240;-72
2021/10/31 07:04:21;;;;;;;10.73;9.73;;;12.30;99.90;;;;;;5025935;28;20232;-73
2021/10/31 07:06:51;;;;;;;11.43;10.33;;;12.30;99.90;;;;;;5025700;28;20209;-72
2021/10/31 07:09:18;;;;;;;11.37;10.27;;;12.40;99.90;;;;;;5025950;28;20228;-74
2021/10/31 07:11:44;;;;;;;11.40;10.30;;;12.40;99.90;;;;;;5025832;28;20297;-73
2021/10/31 07:14:12;;;;;;;12.53;10.27;;;12.40;99.90;;;;;;5026171;28;20231;-73
2021/10/31 07:16:39;;;;;;;11.70;10.60;;;12.40;99.90;;;;;;5025978;28;20608;-73
2021/10/31 07:19:06;;;;;;;11.63;10.53;;;12.40;99.90;;;;;;5025971;28;20209;-73
2021/10/31 07:21:32;;;;;;;10.97;10.00;;;12.40;99.90;;;;;;5025846;28;20232;-75
2021/10/31 07:23:59;;;;;;;11.17;10.10;;;12.40;99.90;;;;;;5025942;28;20684;-75
2021/10/31 07:26:25;;;;;;;11.47;10.30;;;12.50;99.90;;;;;;5026080;28;20662;-75
2021/10/31 07:28:53;;;;;;;11.60;10.53;;;12.50;99.90;;;;;;5025797;28;20228;-75
2021/10/31 07:31:25;;;;;;;11.30;10.30;;;12.50;99.90;;;;;;5025848;28;20243;-74
2021/10/31 07:33:52;;;;;;;11.27;10.13;;;12.60;99.90;;;;;;5025547;28;20668;-75
2021/10/31 07:36:18;;;;;;;11.70;10.50;;;12.70;99.90;;;;;;5026004;28;20200;-75
2021/10/31 07:38:45;;;;;;;11.20;10.20;;;12.70;99.90;;;;;;5025845;28;20285;-75
2021/10/31 07:41:12;;;;;;;11.67;10.53;;;12.70;99.90;;;;;;5025708;28;20204;-74
2021/10/31 07:43:39;;;;;;;12.33;11.13;;;12.80;99.90;;;;;;5025801;28;20580;-75
2021/10/31 07:46:06;;;;;;;11.17;10.13;;;12.90;99.90;;;;;;5025386;28;20559;-72
2021/10/31 07:48:34;;;;;;;12.37;11.17;;;12.90;99.90;;;;;;5025252;28;20232;-72
2021/10/31 07:51:01;;;;;;;11.47;10.40;;;13.00;99.90;;;;;;5025724;28;20709;-72
2021/10/31 07:53:27;;;;;;;10.93;9.93;;;13.00;99.90;;;;;;5025895;28;20205;-72
2021/10/31 07:55:54;;;;;;;11.33;10.20;;;13.10;99.90;;;;;;5025424;28;20675;-72
2021/10/31 07:58:24;;;;;;;12.20;10.60;;;13.20;99.90;;;;;;5025620;28;20216;-73
2021/10/31 08:00:51;;;;;;;11.10;10.00;;;13.20;99.90;;;;;;5024963;28;20248;-73
2021/10/31 08:03:17;;;;;;;11.60;10.60;;;13.10;99.90;;;;;;5025201;28;20239;-74
2021/10/31 08:05:46;;;;;;;11.80;10.70;;;13.10;99.90;;;;;;5025345;28;20205;-72
2021/10/31 08:08:13;;;;;;;11.90;10.50;;;13.10;99.90;;;;;;5025442;28;20213;-71
2021/10/31 08:10:40;;;;;;;11.57;10.30;;;13.10;99.90;;;;;;5025258;28;20240;-71
2021/10/31 08:13:06;;;;;;;10.47;9.60;;;13.20;99.90;;;;;;5025247;28;20685;-72
2021/10/31 08:15:34;;;;;;;11.17;10.17;;;13.30;99.90;;;;;;5025419;28;20204;-72
2021/10/31 08:18:01;;;;;;;10.83;9.83;;;13.40;99.90;;;;;;5025242;28;20208;-72
2021/10/31 08:20:29;;;;;;;11.00;9.93;;;13.50;99.90;;;;;;5025049;28;20237;-72
2021/10/31 08:22:57;;;;;;;10.37;9.43;;;13.60;99.90;;;;;;5025238;28;20209;-71
2021/10/31 08:25:24;;;;;;;10.27;9.37;;;13.70;99.90;;;;;;5025302;28;20208;-72
2021/10/31 08:27:51;;;;;;;9.93;9.03;;;13.70;99.90;;;;;;5025035;28;20243;-72
2021/10/31 08:30:17;;;;;;;11.00;10.00;;;13.80;99.90;;;;;;5025158;28;20205;-71
2021/10/31 08:32:48;;;;;;;10.93;9.83;;;13.80;99.90;;;;;;5025046;28;20233;-72
2021/10/31 08:35:15;;;;;;;10.13;9.23;;;13.80;99.90;;;;;;5024976;28;20647;-72
2021/10/31 08:37:41;;;;;;;10.33;9.30;;;13.90;99.90;;;;;;5024908;28;20208;-72
2021/10/31 08:40:11;;;;;;;9.47;8.67;;;14.00;99.90;;;;;;5024810;28;20968;-72
2021/10/31 08:42:38;;;;;;;10.10;9.13;;;14.00;99.90;;;;;;5024794;28;20228;-72
2021/10/31 08:45:06;;;;;;;10.43;9.53;;;14.00;99.90;;;;;;5024763;28;20229;-72
2021/10/31 08:47:33;;;;;;;12.63;9.90;;;14.10;99.90;;;;;;5025061;28;20212;-71
2021/10/31 08:50:00;;;;;;;10.90;9.80;;;14.20;99.90;;;;;;5024927;28;20208;-71
2021/10/31 08:52:26;;;;;;;10.23;9.43;;;14.20;99.90;;;;;;5024697;28;20316;-71
2021/10/31 08:54:53;;;;;;;10.47;9.57;;;14.30;99.90;;;;;;5024907;28;20216;-71
2021/10/31 08:57:21;;;;;;;11.00;9.90;;;14.30;99.90;;;;;;5024574;28;20213;-71
2021/10/31 08:59:48;;;;;;;11.07;10.07;;;14.40;99.90;;;;;;5026353;28;20252;-71
2021/10/31 09:02:14;;;;;;;11.30;10.30;;;14.40;99.90;;;;;;5028366;28;20266;-71
2021/10/31 09:04:41;;;;;;;10.93;9.93;;;14.40;99.90;;;;;;5027903;28;20228;-71
2021/10/31 09:07:10;;;;;;;11.73;10.53;;;14.40;99.90;;;;;;5028038;28;20213;-72
2021/10/31 09:09:37;;;;;;;10.57;9.47;;;14.50;99.90;;;;;;5027713;28;20670;-72
2021/10/31 09:12:04;;;;;;;11.30;10.33;;;14.50;99.90;;;;;;5028045;28;20308;-72
2021/10/31 09:14:33;;;;;;;10.60;9.60;;;14.60;99.90;;;;;;5027968;28;20371;-72
2021/10/31 09:17:00;;;;;;;10.03;9.23;;;14.70;99.90;;;;;;5027837;28;20284;-72
2021/10/31 09:19:27;;;;;;;11.00;9.90;;;14.80;99.90;;;;;;5033210;27;20631;-74
2021/10/31 09:21:54;;;;;;;10.37;9.37;;;14.90;99.90;;;;;;5044795;27;20281;-74
2021/10/31 09:24:20;;;;;;;10.07;9.10;;;14.90;99.90;;;;;;5027764;28;20247;-75
2021/10/31 09:26:47;;;;;;;10.53;9.57;;;15.10;99.90;;;;;;5027470;28;20213;-75
2021/10/31 09:29:14;;;;;;;9.93;9.00;;;15.10;99.90;;;;;;5027974;28;20209;-75
2021/10/31 09:31:41;;;;;;;11.83;8.80;;;15.20;99.90;;;;;;5027183;28;20240;-73
2021/10/31 09:34:08;;;;;;;10.43;9.43;;;15.40;99.90;;;;;;5028236;28;20269;-72
2021/10/31 09:36:35;;;;;;;10.07;9.03;;;15.40;99.90;;;;;;5026832;28;20731;-72
2021/10/31 09:39:04;;;;;;;9.77;8.87;;;15.50;99.90;;;;;;5027245;28;20244;-72
2021/10/31 09:41:31;;;;;;;9.33;8.63;;;15.60;99.90;;;;;;5027185;28;20631;-72
2021/10/31 09:44:09;;;;;;;10.17;9.30;;;15.60;99.90;;;;;;5027370;28;20229;-73
2021/10/31 09:46:36;;;;;;;10.53;9.67;;;15.70;99.90;;;;;;5027302;28;20205;-73
2021/10/31 09:49:06;;;;;;;9.83;9.03;;;15.70;99.90;;;;;;5027173;28;20714;-73
2021/10/31 09:51:33;;;;;;;10.03;9.13;;;15.80;99.90;;;;;;5026684;28;20766;-73
2021/10/31 09:54:00;;;;;;;10.00;9.10;;;15.80;99.90;;;;;;5027258;28;20258;-73
2021/10/31 09:56:27;;;;;;;10.17;8.63;;;15.90;99.90;;;;;;5027167;28;20216;-72
2021/10/31 09:58:58;;;;;;;9.17;8.47;;;16.00;99.90;;;;;;5026913;28;20323;-73
2021/10/31 10:01:38;;;;;;;9.90;9.10;;;16.20;99.90;;;;;;5026955;28;20203;-72
2021/10/31 10:04:07;;;;;;;9.70;8.30;;;16.30;99.90;;;;;;5026620;28;20244;-72
2021/10/31 10:06:34;;;;;;;9.93;9.13;;;16.30;99.90;;;;;;5026556;28;20201;-71
2021/10/31 10:09:06;;;;;;;10.07;8.70;;;16.40;99.90;;;;;;5026956;28;20227;-71
2021/10/31 10:11:36;;;;;;;9.37;8.60;;;16.40;99.90;;;;;;5026161;28;20618;-72
2021/10/31 10:14:14;;;;;;;9.83;9.00;;;16.40;99.90;;;;;;5026983;28;20212;-73
2021/10/31 10:16:42;;;;;;;10.17;9.30;;;16.50;99.90;;;;;;5027019;28;20238;-76
2021/10/31 10:19:25;;;;;;;9.33;8.53;;;16.50;99.90;;;;;;5027147;28;20635;-72
2021/10/31 10:21:57;;;;;;;10.17;9.03;;;16.70;99.90;;;;;;5025907;28;20838;-71
2021/10/31 10:24:25;;;;;;;10.73;9.73;;;16.80;99.90;;;;;;5025564;28;20208;-71
2021/10/31 10:26:57;;;;;;;11.07;9.97;;;16.90;99.90;;;;;;5024396;28;20746;-71
2021/10/31 10:29:25;;;;;;;12.27;11.07;;;17.00;99.90;;;;;;5027285;28;20206;-71
2021/10/31 10:31:54;;;;;;;9.63;8.83;;;17.00;99.90;;;;;;5043269;28;20236;-71
2021/10/31 10:34:36;;;;;;;9.03;8.23;;;17.10;99.90;;;;;;5026139;28;20217;-71
2021/10/31 10:37:08;;;;;;;9.30;8.47;;;17.20;99.90;;;;;;5032594;28;20659;-71
2021/10/31 10:39:35;;;;;;;11.03;8.60;;;17.30;99.90;;;;;;5044104;28;20253;-71
2021/10/31 10:42:02;;;;;;;9.40;8.43;;;17.40;99.90;;;;;;5043998;28;20292;-71
2021/10/31 10:44:31;;;;;;;9.63;8.70;;;17.40;99.90;;;;;;5044144;28;20232;-71
2021/10/31 10:47:01;;;;;;;8.77;8.03;;;17.50;99.90;;;;;;5044690;28;20204;-71
2021/10/31 10:49:33;;;;;;;9.00;8.20;;;17.50;99.90;;;;;;5038493;28;20200;-71
2021/10/31 10:52:11;;;;;;;8.77;8.07;;;17.70;99.90;;;;;;5025052;28;20221;-71
2021/10/31 10:54:39;;;;;;;9.70;8.70;;;17.80;99.90;;;;;;5039486;28;20249;-71
2021/10/31 10:57:08;;;;;;;8.70;8.00;;;17.90;99.90;;;;;;5044390;28;20757;-71
2021/10/31 10:59:36;;;;;;;9.50;8.70;;;18.00;99.90;;;;;;5035413;28;20244;-72
2021/10/31 11:02:10;;;;;;;8.67;7.87;;;18.10;99.90;;;;;;5024017;28;20625;-71
2021/10/31 11:04:40;;;;;;;9.03;8.40;;;18.20;99.90;;;;;;5024177;28;20212;-71
2021/10/31 11:07:07;;;;;;;9.13;8.33;;;18.20;99.90;;;;;;5024596;28;20211;-71
2021/10/31 11:09:39;;;;;;;10.13;9.23;;;18.10;99.90;;;;;;5028367;28;20604;-71
2021/10/31 11:12:30;;;;;;;9.63;8.83;;;18.10;99.90;;;;;;5030295;28;20239;-71
2021/10/31 11:15:00;;;;;;;10.30;9.50;;;18.20;99.90;;;;;;5033458;28;20867;-71
2021/10/31 11:17:27;;;;;;;9.20;8.40;;;18.20;99.90;;;;;;5024538;28;20216;-71
2021/10/31 11:19:57;;;;;;;9.57;8.77;;;18.30;99.90;;;;;;5024159;28;20256;-72
2021/10/31 11:22:25;;;;;;;9.63;8.73;;;18.40;99.90;;;;;;5023474;28;20281;-72
2021/10/31 11:24:53;;;;;;;8.60;7.90;;;18.40;99.90;;;;;;5023404;28;20581;-72
2021/10/31 11:27:21;;;;;;;9.60;8.70;;;18.50;99.90;;;;;;5023951;28;20212;-72
2021/10/31 11:29:49;;;;;;;8.33;7.73;;;18.50;99.90;;;;;;5026085;28;20236;-72
2021/10/31 11:32:18;;;;;;;8.93;8.07;;;18.60;99.90;;;;;;5028221;28;20302;-72
2021/10/31 11:34:47;;;;;;;8.73;8.03;;;18.60;99.90;;;;;;5044492;28;20618;-72
2021/10/31 11:37:18;;;;;;;8.93;8.13;;;18.60;99.90;;;;;;5043720;28;20672;-72
2021/10/31 11:39:46;;;;;;;8.37;7.57;;;18.60;99.90;;;;;;5043992;28;20261;-72
2021/10/31 11:42:15;;;;;;;8.30;7.60;;;18.70;99.90;;;;;;5025933;28;20998;-72
2021/10/31 11:45:04;;;;;;;8.93;8.17;;;18.70;99.90;;;;;;5023348;28;20236;-71
2021/10/31 11:47:31;;;;;;;8.33;7.53;;;18.70;99.90;;;;;;5023729;28;20205;-72
2021/10/31 11:50:06;;;;;;;8.43;7.73;;;18.70;99.90;;;;;;5023660;28;20265;-71
2021/10/31 11:52:46;;;;;;;8.23;7.47;;;18.70;99.90;;;;;;5023423;28;20256;-72
2021/10/31 11:55:34;;;;;;;7.97;7.37;;;18.80;99.90;;;;;;5023267;28;20205;-72
2021/10/31 11:58:42;;;;;;;8.50;7.80;;;18.90;99.90;;;;;;5023467;28;20197;-72
2021/10/31 12:01:14;;;;;;;7.60;7.03;;;19.00;99.90;;;;;;5023063;28;20219;-72
2021/10/31 12:03:42;;;;;;;7.93;7.33;;;19.10;99.90;;;;;;5023345;28;20228;-72
2021/10/31 12:06:42;;;;;;;7.23;6.53;;;19.20;99.90;;;;;;5023315;28;20292;-72
2021/10/31 12:09:21;;;;;;;7.43;6.83;;;19.30;99.90;;;;;;5023245;28;20655;-72
2021/10/31 12:12:09;;;;;;;7.30;6.80;;;19.40;99.90;;;;;;5023138;28;20277;-72
2021/10/31 12:14:44;;;;;;;6.83;6.33;;;19.40;99.90;;;;;;5040533;28;20253;-72
2021/10/31 12:17:11;;;;;;;5.93;5.53;;;19.50;99.90;;;;;;5043713;28;20544;-72
2021/10/31 12:19:39;;;;;;;6.73;6.23;;;19.40;99.90;;;;;;5043194;28;20232;-72
2021/10/31 12:22:08;;;;;;;7.90;6.13;;;19.40;99.90;;;;;;5042966;28;20950;-72
2021/10/31 12:24:38;;;;;;;6.17;5.77;;;19.50;99.90;;;;;;5042325;28;20705;-72
2021/10/31 12:27:11;;;;;;;5.70;5.27;;;19.50;99.90;;;;;;5043131;28;20223;-72
2021/10/31 12:29:39;;;;;;;5.50;5.07;;;19.60;99.90;;;;;;5043067;28;20777;-72
2021/10/31 12:32:07;;;;;;;5.47;5.07;;;19.60;99.90;;;;;;5043133;28;20239;-72
2021/10/31 12:34:38;;;;;;;5.17;4.67;;;19.70;99.90;;;;;;5044584;28;20680;-72
2021/10/31 12:37:28;;;;;;;5.47;5.07;;;19.70;99.90;;;;;;5044262;28;20230;-72
2021/10/31 12:39:58;;;;;;;4.97;4.60;;;19.70;99.90;;;;;;5029364;28;20667;-72
2021/10/31 12:42:28;;;;;;;4.83;4.53;;;19.80;99.90;;;;;;5037872;28;20211;-72
2021/10/31 12:44:58;;;;;;;6.07;4.80;;;19.80;99.90;;;;;;5039052;28;20224;-71
2021/10/31 12:47:34;;;;;;;5.67;5.27;;;19.80;99.90;;;;;;5030556;27;20220;-72